KCCA/CCA METAR and TAF weather

Enter ICAO airport designator
Station Type Date Time Source
KCCA METAR 2019/04/24 21:55 UTC NOAA

KCCA 242155Z AUTO 00000KT 10SM BKN050 BKN095 20/18 A2984 RMK AO2


Station Type Date Time Source
KCCA Decoded METAR 2019/04/24 21:55 UTC NOAA

Station name not available
Apr 24, 2019 - 05:55 PM EDT / 2019.04.24 2155 UTC
Wind: Calm:0
Visibility: 10 mile(s):0
Sky conditions: mostly cloudy
Temperature: 68 F (20 C)
Dew Point: 64 F (18 C)
Relative Humidity: 88%
Pressure (altimeter): 29.84 in. Hg (1010 hPa)
ob: KCCA 242155Z AUTO 00000KT 10SM BKN050 BKN095 20/18 A2984 RMK AO2
cycle: 22

Station Type Date Time Source
KCCA TAF UTC NOAA

Error!

Example: see airport list